Time;durP1;ratioP1;P1;durP2;ratioP2;P2;SDS_P1;SDS_P2;PMS_P1;PMS_P2;Temp;Humidity;BMP_temperature;BMP_pressure;BME280_temperature;BME280_humidity;BME280_pressure;Samples;Min_cycle;Max_cycle;Signal;HPM_P1;HPM_P2
2023/05/02 00:00:24;;;;;;;9.32;5.53;;;;;;;11.73;nan;52154.19;4973817;28;20253;-67
2023/05/02 00:02:50;;;;;;;7.88;5.15;;;;;;;11.66;nan;51524.75;4973365;28;20181;-69
2023/05/02 00:05:15;;;;;;;7.68;5.03;;;;;;;11.51;nan;52018.81;4974432;28;20176;-68
2023/05/02 00:07:40;;;;;;;6.93;5.15;;;;;;;11.66;nan;52124.34;4982456;28;20196;-68
2023/05/02 00:10:07;;;;;;;8.35;5.20;;;;;;;11.23;nan;52172.50;4974027;28;20233;-68
2023/05/02 00:12:33;;;;;;;6.80;4.35;;;;;;;11.47;nan;52604.19;4973874;28;20236;-69
2023/05/02 00:14:58;;;;;;;9.48;4.82;;;;;;;11.58;nan;51887.41;4973334;28;20236;-67
2023/05/02 00:17:24;;;;;;;9.02;4.95;;;;;;;11.31;nan;50834.06;4971707;28;20224;-66
2023/05/02 00:19:49;;;;;;;9.73;5.00;;;;;;;11.24;nan;48017.00;4973747;28;20182;-68
2023/05/02 00:22:15;;;;;;;6.53;4.53;;;;;;;11.50;nan;47727.31;4973713;28;20645;-69
2023/05/02 00:24:40;;;;;;;7.22;5.05;;;;;;;11.15;nan;47323.41;4973412;28;20264;-68
2023/05/02 00:27:05;;;;;;;8.60;5.47;;;;;;;11.17;nan;46838.97;4973637;28;20205;-68
2023/05/02 00:29:31;;;;;;;6.43;4.47;;;;;;;11.67;nan;54496.69;4973460;28;20169;-65
2023/05/02 00:31:56;;;;;;;6.63;4.15;;;;;;;11.45;nan;56528.22;4973342;28;20209;-66
2023/05/02 00:34:23;;;;;;;6.53;4.30;;;;;;;11.40;nan;55942.75;4973479;28;20205;-67
2023/05/02 00:36:49;;;;;;;7.57;4.20;;;;;;;11.36;nan;56084.66;4971854;28;20181;-66
2023/05/02 00:39:14;;;;;;;9.95;5.00;;;;;;;11.15;nan;56794.81;4973904;28;20177;-69
2023/05/02 00:41:40;;;;;;;8.07;4.70;;;;;;;11.41;nan;56978.13;4972045;28;20173;-68
2023/05/02 00:44:06;;;;;;;7.10;4.30;;;;;;;11.30;nan;56751.94;4972961;28;20554;-68
2023/05/02 00:46:31;;;;;;;7.90;4.55;;;;;;;11.29;nan;56490.44;4972994;28;20170;-68
2023/05/02 00:48:56;;;;;;;5.32;4.00;;;;;;;11.27;nan;56984.25;4973191;28;20213;-67
2023/05/02 00:51:22;;;;;;;8.63;4.88;;;;;;;11.16;nan;56610.03;4973065;28;20170;-69
2023/05/02 00:53:48;;;;;;;7.50;4.47;;;;;;;11.11;nan;56530.72;4972634;28;20185;-66
2023/05/02 00:56:13;;;;;;;6.30;4.20;;;;;;;11.12;nan;57320.16;4972779;28;20781;-68
2023/05/02 00:58:40;;;;;;;8.40;4.18;;;;;;;11.55;nan;58137.22;4972935;28;20297;-68
2023/05/02 01:01:14;;;;;;;7.03;4.10;;;;;;;11.55;nan;58837.56;4972580;28;20185;-67
2023/05/02 01:03:58;;;;;;;6.27;3.90;;;;;;;11.48;nan;59160.75;4972761;28;20539;-67
2023/05/02 01:06:30;;;;;;;6.77;4.27;;;;;;;11.27;nan;59084.06;4972684;28;20188;-68
2023/05/02 01:09:11;;;;;;;6.73;4.00;;;;;;;11.01;nan;59293.13;4972751;28;20193;-68
2023/05/02 01:11:47;;;;;;;6.10;4.37;;;;;;;11.24;nan;59578.50;4980824;28;20606;-68
2023/05/02 01:14:13;;;;;;;6.80;3.90;;;;;;;11.20;nan;59628.31;4972917;28;20732;-67
2023/05/02 01:16:42;;;;;;;4.77;3.57;;;;;;;11.18;nan;59597.44;4973130;28;20174;-69
2023/05/02 01:19:39;;;;;;;5.53;3.73;;;;;;;11.20;nan;59474.44;4972972;28;20272;-68
2023/05/02 01:22:07;;;;;;;4.70;3.40;;;;;;;10.93;nan;59583.72;4980311;28;20332;-67
2023/05/02 01:24:53;;;;;;;6.60;3.53;;;;;;;11.14;nan;59588.47;4973333;28;20185;-68
2023/05/02 01:27:48;;;;;;;5.17;3.30;;;;;;;10.95;nan;59312.09;4974787;28;20170;-70
2023/05/02 01:30:16;;;;;;;6.13;4.37;;;;;;;10.83;nan;59079.81;4976730;28;20173;-69
2023/05/02 01:32:44;;;;;;;7.77;4.33;;;;;;;10.78;nan;58644.88;4976733;28;20188;-67
2023/05/02 01:35:12;;;;;;;7.07;4.40;;;;;;;10.55;nan;58641.34;4975040;28;20708;-66
2023/05/02 01:37:40;;;;;;;6.67;4.07;;;;;;;10.69;nan;58464.59;4976322;28;20658;-68
2023/05/02 01:40:08;;;;;;;4.90;3.43;;;;;;;10.51;nan;58529.28;4976746;28;20177;-66
2023/05/02 01:42:36;;;;;;;5.63;4.03;;;;;;;10.37;nan;58512.06;4976233;28;20658;-67
2023/05/02 01:45:04;;;;;;;6.73;3.93;;;;;;;10.54;nan;58547.84;4976468;28;20181;-66
2023/05/02 01:47:34;;;;;;;6.23;3.60;;;;;;;10.32;nan;58745.88;4976749;28;20177;-69
2023/05/02 01:50:02;;;;;;;7.17;4.00;;;;;;;10.25;nan;58730.59;4976735;28;20181;-68
2023/05/02 01:52:29;;;;;;;7.27;3.97;;;;;;;10.33;nan;58695.94;4976318;28;20212;-68
2023/05/02 01:54:58;;;;;;;5.10;3.87;;;;;;;10.31;nan;58699.41;4976072;28;20201;-68
2023/05/02 01:57:24;;;;;;;6.20;3.80;;;;;;;10.51;nan;58649.75;4975946;28;20185;-69
2023/05/02 01:59:50;;;;;;;5.50;3.57;;;;;;;10.48;nan;58503.06;4976464;28;20644;-67
2023/05/02 02:02:17;;;;;;;6.13;4.23;;;;;;;10.14;nan;58383.03;4976384;28;20549;-66
2023/05/02 02:04:44;;;;;;;6.30;4.20;;;;;;;10.16;nan;57997.63;4826730;28;20948;-68
2023/05/02 02:07:13;;;;;;;6.17;4.03;;;;;;;10.39;nan;57822.38;4975951;28;20260;-69
2023/05/02 02:09:39;;;;;;;6.37;4.47;;;;;;;10.38;nan;57329.59;4975934;28;20173;-68
2023/05/02 02:12:22;;;;;;;5.87;4.17;;;;;;;9.95;nan;57031.44;4975921;28;20170;-69
2023/05/02 02:14:54;;;;;;;6.70;4.57;;;;;;;10.12;nan;56809.91;4984211;28;20260;-67
2023/05/02 02:17:28;;;;;;;7.17;4.10;;;;;;;10.24;nan;56394.34;4976011;28;20173;-66
2023/05/02 02:19:56;;;;;;;7.63;4.77;;;;;;;10.14;nan;55504.66;4976116;28;20174;-66
2023/05/02 02:22:25;;;;;;;8.37;5.07;;;;;;;10.08;nan;54367.47;4975769;28;20264;-66
2023/05/02 02:24:52;;;;;;;7.27;4.43;;;;;;;9.91;nan;51881.84;4976507;28;20174;-66
2023/05/02 02:27:18;;;;;;;9.13;4.50;;;;;;;9.81;nan;49136.03;4975835;28;20205;-68
2023/05/02 02:29:44;;;;;;;7.00;5.03;;;;;;;9.80;nan;48036.81;4975812;28;20169;-67
2023/05/02 02:32:09;;;;;;;8.07;5.03;;;;;;;10.05;nan;47053.59;4975679;28;20173;-66
2023/05/02 02:34:35;;;;;;;9.10;4.57;;;;;;;10.00;nan;45872.41;4975703;28;20200;-68
2023/05/02 02:37:25;;;;;;;8.50;4.83;;;;;;;9.86;nan;44829.69;4975245;28;20614;-69
2023/05/02 02:40:07;;;;;;;7.60;4.53;;;;;;;9.81;nan;46137.63;4976763;28;20220;-67
2023/05/02 02:42:43;;;;;;;8.83;4.80;;;;;;;9.74;nan;46866.28;4975228;28;20523;-65
2023/05/02 02:45:23;;;;;;;8.60;5.00;;;;;;;9.53;nan;45321.59;4975199;28;20181;-68
2023/05/02 02:47:55;;;;;;;7.60;4.27;;;;;;;9.39;nan;39400.97;4975841;28;20173;-69
2023/05/02 02:50:31;;;;;;;8.37;4.70;;;;;;;9.67;nan;41467.94;4975486;28;20174;-68
2023/05/02 02:53:10;;;;;;;9.17;5.10;;;;;;;8.91;nan;41698.28;4975499;28;20180;-66
2023/05/02 02:56:01;;;;;;;7.63;4.03;;;;;;;9.14;nan;39612.59;4975198;28;20751;-69
2023/05/02 02:58:46;;;;;;;7.17;4.63;;;;;;;9.08;nan;39152.31;4975221;28;20221;-67
2023/05/02 03:01:19;;;;;;;7.20;4.47;;;;;;;8.78;nan;37187.34;4975127;28;20188;-68
2023/05/02 03:03:46;;;;;;;8.40;4.40;;;;;;;9.09;nan;33972.66;4974974;28;20177;-67
2023/05/02 03:06:12;;;;;;;9.20;4.80;;;;;;;9.02;nan;32998.00;4974900;28;20506;-69
2023/05/02 03:08:39;;;;;;;6.37;4.50;;;;;;;8.79;nan;32659.91;4975339;28;20224;-67
2023/05/02 03:11:04;;;;;;;8.00;4.90;;;;;;;9.03;nan;31058.94;4975121;28;20575;-68
2023/05/02 03:13:30;;;;;;;7.13;4.97;;;;;;;8.98;nan;28794.41;4974983;28;20217;-68
2023/05/02 03:16:23;;;;;;;7.43;5.10;;;;;;;8.95;nan;30407.38;4974834;28;20216;-69
2023/05/02 03:18:49;;;;;;;11.00;5.57;;;;;;;9.02;nan;30411.69;4980827;28;20162;-68
2023/05/02 03:21:14;;;;;;;5.63;4.23;;;;;;;8.89;nan;28143.38;4968332;28;20255;-69
2023/05/02 03:23:39;;;;;;;11.23;5.37;;;;;;;9.30;nan;31075.59;4974995;28;20185;-68
2023/05/02 03:26:05;;;;;;;7.40;4.80;;;;;;;9.24;nan;32365.59;4974671;28;20245;-66
2023/05/02 03:28:30;;;;;;;6.57;4.47;;;;;;;9.11;nan;31063.66;4973433;28;20229;-69
2023/05/02 03:30:56;;;;;;;8.37;4.90;;;;;;;9.86;nan;36616.41;4973487;28;20232;-69
2023/05/02 03:33:21;;;;;;;9.57;5.10;;;;;;;10.44;nan;55043.31;4973301;28;20209;-68
2023/05/02 03:35:46;;;;;;;7.77;4.80;;;;;;;11.45;nan;59407.44;4974517;28;20205;-67
2023/05/02 03:38:12;;;;;;;7.77;4.50;;;;;;;12.10;nan;60458.75;4974439;28;20182;-68
2023/05/02 03:40:37;;;;;;;8.73;5.07;;;;;;;12.69;nan;60639.50;4974474;28;20244;-69
2023/05/02 03:43:03;;;;;;;6.63;4.32;;;;;;;13.25;nan;60862.75;4974256;28;20181;-67
2023/05/02 03:45:28;;;;;;;6.97;4.28;;;;;;;13.61;nan;60954.00;4974211;28;20177;-69
2023/05/02 03:47:54;;;;;;;6.55;4.45;;;;;;;14.54;nan;61103.94;4974293;28;20293;-66
2023/05/02 03:50:19;;;;;;;7.13;3.97;;;;;;;15.33;nan;61197.63;4973225;28;20193;-69
2023/05/02 03:52:45;;;;;;;7.20;4.40;;;;;;;15.91;nan;61288.34;4974077;28;20212;-67
2023/05/02 03:55:11;;;;;;;7.68;4.35;;;;;;;16.30;nan;61333.88;4973921;28;20205;-68
2023/05/02 03:57:36;;;;;;;5.43;3.70;;;;;;;16.93;nan;61357.56;4972845;28;20173;-70
2023/05/02 04:00:02;;;;;;;6.50;3.88;;;;;;;17.54;nan;61467.31;4973706;28;20232;-69
2023/05/02 04:02:28;;;;;;;7.75;4.35;;;;;;;18.49;nan;61555.72;4973755;28;20169;-66
2023/05/02 04:04:54;;;;;;;7.80;4.18;;;;;;;19.00;nan;61623.31;4973850;28;20178;-67
2023/05/02 04:07:19;;;;;;;8.40;4.22;;;;;;;19.54;nan;61652.34;4973661;28;20649;-68
2023/05/02 04:09:45;;;;;;;6.68;3.97;;;;;;;19.68;nan;61803.00;4973691;28;20177;-67
2023/05/02 04:12:11;;;;;;;9.32;4.63;;;;;;;20.19;nan;61707.34;4973705;28;20184;-68
2023/05/02 04:14:36;;;;;;;8.90;4.35;;;;;;;20.45;nan;61759.66;4971973;28;20205;-68
2023/05/02 04:17:02;;;;;;;8.02;4.55;;;;;;;20.30;nan;61766.53;4973086;28;20172;-69
2023/05/02 04:19:28;;;;;;;6.40;3.95;;;;;;;19.71;nan;61724.03;4974928;28;20196;-67
2023/05/02 04:21:53;;;;;;;6.22;4.07;;;;;;;19.63;nan;61688.47;4979367;28;20550;-68
2023/05/02 04:24:19;;;;;;;7.70;4.68;;;;;;;19.83;nan;61698.78;4973262;28;20187;-71
2023/05/02 04:26:46;;;;;;;7.75;3.95;;;;;;;20.09;nan;61766.03;4973558;28;20162;-68
2023/05/02 04:29:12;;;;;;;7.20;3.90;;;;;;;19.80;nan;61707.75;4973108;28;20563;-68
2023/05/02 04:31:38;;;;;;;9.07;4.90;;;;;;;19.47;nan;61672.91;4961008;28;20648;-67
2023/05/02 04:34:03;;;;;;;5.25;4.13;;;;;;;19.47;nan;61662.56;4959870;28;20201;-69
2023/05/02 04:36:29;;;;;;;8.40;4.53;;;;;;;19.01;nan;61789.59;4958661;28;20181;-66
2023/05/02 04:38:54;;;;;;;6.65;4.32;;;;;;;18.69;nan;61565.44;4965448;28;20174;-66
2023/05/02 04:41:20;;;;;;;9.52;5.55;;;;;;;18.32;nan;61578.38;4958548;28;20181;-70
2023/05/02 04:43:46;;;;;;;6.43;3.97;;;;;;;18.12;nan;61500.88;4970039;28;20224;-69
2023/05/02 04:46:11;;;;;;;7.43;4.72;;;;;;;17.88;nan;61510.44;4956702;28;20181;-69
2023/05/02 04:48:40;;;;;;;6.53;4.70;;;;;;;18.09;nan;61498.59;4963843;28;20631;-69
2023/05/02 04:51:06;;;;;;;7.85;4.90;;;;;;;16.99;nan;61403.63;4963266;28;20189;-66
2023/05/02 04:53:32;;;;;;;9.85;4.85;;;;;;;17.24;nan;61374.56;4960584;28;20615;-68
2023/05/02 04:55:57;;;;;;;12.35;4.18;;;;;;;17.51;nan;61529.06;4965211;28;20292;-67
2023/05/02 04:58:23;;;;;;;6.32;3.92;;;;;;;17.47;nan;61434.13;4958553;28;20276;-65
2023/05/02 05:00:48;;;;;;;8.05;4.15;;;;;;;16.75;nan;61355.84;4973556;28;20576;-68
2023/05/02 05:03:14;;;;;;;6.40;4.55;;;;;;;16.36;nan;61312.31;4983128;28;20189;-68
2023/05/02 05:05:39;;;;;;;7.50;4.25;;;;;;;16.01;nan;61252.69;4979241;28;20205;-68
2023/05/02 05:08:05;;;;;;;7.43;4.15;;;;;;;15.84;nan;61249.53;4987588;28;20238;-68
2023/05/02 05:10:30;;;;;;;7.85;4.70;;;;;;;15.11;nan;61236.56;4982112;28;20178;-68
2023/05/02 05:12:56;;;;;;;8.57;4.63;;;;;;;14.73;nan;61174.22;4991145;28;20341;-69
2023/05/02 05:15:22;;;;;;;7.00;4.57;;;;;;;14.30;nan;61105.66;4991449;28;20189;-68
2023/05/02 05:17:48;;;;;;;7.60;4.32;;;;;;;14.33;nan;61134.19;4992052;28;20169;-68
2023/05/02 05:20:13;;;;;;;6.93;4.63;;;;;;;14.13;nan;61089.63;4991639;28;20199;-66
2023/05/02 05:22:40;;;;;;;6.53;3.70;;;;;;;13.90;nan;61104.78;4998451;28;20255;-66
2023/05/02 05:25:06;;;;;;;4.18;3.10;;;;;;;13.91;nan;61046.88;4993501;28;20180;-69
2023/05/02 05:27:33;;;;;;;5.20;3.13;;;;;;;13.81;nan;61025.31;4992002;28;20175;-67
2023/05/02 05:29:58;;;;;;;3.85;3.15;;;;;;;14.06;nan;61086.31;4991878;28;20188;-68
2023/05/02 05:32:24;;;;;;;5.78;3.80;;;;;;;13.75;nan;61035.94;4992018;28;20173;-70
2023/05/02 05:34:53;;;;;;;6.80;3.75;;;;;;;13.76;nan;61114.66;4991775;28;20643;-69
2023/05/02 05:37:20;;;;;;;6.10;4.10;;;;;;;13.74;nan;61040.53;4992073;28;20231;-68
2023/05/02 05:39:45;;;;;;;4.95;3.80;;;;;;;13.23;nan;60989.31;4992263;28;20176;-69
2023/05/02 05:42:11;;;;;;;6.95;3.90;;;;;;;13.68;nan;61047.19;4991592;28;20177;-68
2023/05/02 05:44:37;;;;;;;6.72;3.53;;;;;;;13.89;nan;61054.31;4991422;28;20727;-69
2023/05/02 05:47:03;;;;;;;6.03;3.78;;;;;;;13.80;nan;61152.56;4991875;28;20173;-68
2023/05/02 05:49:29;;;;;;;6.47;4.20;;;;;;;13.85;nan;61073.47;4990273;28;20176;-70
2023/05/02 05:51:54;;;;;;;5.10;3.70;;;;;;;13.64;nan;61070.88;4991440;28;20712;-71
2023/05/02 05:54:20;;;;;;;7.28;4.30;;;;;;;13.86;nan;61107.41;4991314;28;20284;-69
2023/05/02 05:56:45;;;;;;;7.60;3.88;;;;;;;14.10;nan;61111.38;4991859;28;20180;-68
2023/05/02 05:59:11;;;;;;;5.85;4.03;;;;;;;14.03;nan;61083.50;4991465;28;20231;-67
2023/05/02 06:01:37;;;;;;;6.72;3.95;;;;;;;14.33;nan;61090.50;4991995;28;20185;-68
2023/05/02 06:04:03;;;;;;;4.70;3.80;;;;;;;14.20;nan;61130.34;4991851;28;20220;-73
2023/05/02 06:06:30;;;;;;;7.30;3.55;;;;;;;14.05;nan;61062.63;4991566;28;20158;-70
2023/05/02 06:08:56;;;;;;;7.18;3.85;;;;;;;14.53;nan;61174.75;4991669;28;20180;-68
2023/05/02 06:11:23;;;;;;;7.75;4.35;;;;;;;14.35;nan;61118.44;4991246;28;20195;-68
2023/05/02 06:13:50;;;;;;;9.18;4.88;;;;;;;14.64;nan;61176.91;4992298;28;20161;-71
2023/05/02 06:16:16;;;;;;;7.05;4.57;;;;;;;14.20;nan;60973.66;4995328;28;20236;-68
2023/05/02 06:18:42;;;;;;;7.05;4.53;;;;;;;14.28;nan;61126.53;4988925;28;20251;-68
2023/05/02 06:21:07;;;;;;;6.03;4.55;;;;;;;14.19;nan;61118.97;4975665;28;20185;-69
2023/05/02 06:23:33;;;;;;;6.68;4.47;;;;;;;14.47;nan;61119.72;4974480;28;20235;-68
2023/05/02 06:26:00;;;;;;;6.75;4.60;;;;;;;14.51;nan;61137.09;4982557;28;20208;-70
2023/05/02 06:28:25;;;;;;;7.07;4.53;;;;;;;14.20;nan;61096.38;4975330;28;20707;-68
2023/05/02 06:30:57;;;;;;;7.22;4.50;;;;;;;14.58;nan;61139.28;4975646;28;20165;-68
2023/05/02 06:33:22;;;;;;;6.88;4.80;;;;;;;14.79;nan;61116.69;4975372;28;20208;-69
2023/05/02 06:35:54;;;;;;;8.27;4.80;;;;;;;14.82;nan;61197.22;4975039;28;20291;-68
2023/05/02 06:38:20;;;;;;;6.60;4.57;;;;;;;14.70;nan;61109.13;4975279;28;20180;-69
2023/05/02 06:40:46;;;;;;;7.28;4.20;;;;;;;15.12;nan;61196.53;4975083;28;20241;-68
2023/05/02 06:43:12;;;;;;;6.10;3.97;;;;;;;15.09;nan;61164.84;4975308;28;20166;-68
2023/05/02 06:45:38;;;;;;;5.43;3.90;;;;;;;15.21;nan;61183.53;4975167;28;20217;-69
2023/05/02 06:48:04;;;;;;;7.40;3.90;;;;;;;15.59;nan;61231.59;4975132;28;20169;-69
2023/05/02 06:50:29;;;;;;;5.43;3.88;;;;;;;15.98;nan;61328.63;4975511;28;20173;-68
2023/05/02 06:52:55;;;;;;;8.10;4.65;;;;;;;16.27;nan;61271.19;4974885;28;20550;-67
2023/05/02 06:55:21;;;;;;;6.95;3.72;;;;;;;16.29;nan;61260.56;4974161;28;20201;-71
2023/05/02 06:57:48;;;;;;;4.75;3.55;;;;;;;16.04;nan;61302.47;4974563;28;20558;-70
2023/05/02 07:00:16;;;;;;;4.53;3.13;;;;;;;15.97;nan;61312.03;4974358;28;20229;-69
2023/05/02 07:02:41;;;;;;;4.18;3.03;;;;;;;15.99;nan;61301.41;4974505;28;20223;-67
2023/05/02 07:05:07;;;;;;;4.93;3.20;;;;;;;15.75;nan;61270.28;4973164;28;20567;-70
2023/05/02 07:07:32;;;;;;;6.20;3.17;;;;;;;15.93;nan;61290.03;4974851;28;20174;-70
2023/05/02 07:09:58;;;;;;;6.65;2.95;;;;;;;15.87;nan;61285.84;4974584;28;20653;-62
2023/05/02 07:12:24;;;;;;;4.82;3.65;;;;;;;15.84;nan;61290.75;4973269;28;20184;-62
2023/05/02 07:14:49;;;;;;;5.05;3.33;;;;;;;16.14;nan;61297.75;4974921;28;20223;-67
2023/05/02 07:17:15;;;;;;;4.30;2.97;;;;;;;16.34;nan;61310.03;4974911;28;20610;-62
2023/05/02 07:19:40;;;;;;;4.93;2.70;;;;;;;16.53;nan;61470.78;4974403;28;20170;-63
2023/05/02 07:22:06;;;;;;;7.55;3.30;;;;;;;16.97;nan;61401.34;4974740;28;20173;-62
2023/05/02 07:24:31;;;;;;;4.18;2.65;;;;;;;16.94;nan;61387.66;4974129;28;20637;-61
2023/05/02 07:26:56;;;;;;;5.00;3.00;;;;;;;16.67;nan;61365.41;4974628;28;20688;-61
2023/05/02 07:29:22;;;;;;;4.57;2.75;;;;;;;16.93;nan;61391.09;4977053;28;20205;-63
2023/05/02 07:31:47;;;;;;;3.33;2.65;;;;;;;16.84;nan;61386.09;4974681;28;20178;-62
2023/05/02 07:34:13;;;;;;;2.90;2.30;;;;;;;17.20;nan;61432.00;4974591;28;20225;-63
2023/05/02 07:36:38;;;;;;;3.33;2.50;;;;;;;17.48;nan;61417.19;4974503;28;20208;-63
2023/05/02 07:39:04;;;;;;;5.47;2.55;;;;;;;17.59;nan;61463.22;4974331;28;20544;-61
2023/05/02 07:41:29;;;;;;;3.28;2.20;;;;;;;17.39;nan;61425.06;4974758;28;20212;-62
2023/05/02 07:43:56;;;;;;;4.15;2.55;;;;;;;17.69;nan;61457.91;4974355;28;20185;-61
2023/05/02 07:46:22;;;;;;;4.93;2.50;;;;;;;17.30;nan;61445.88;4974188;28;20265;-60
2023/05/02 07:48:47;;;;;;;4.43;2.30;;;;;;;17.21;nan;61413.03;4974316;28;20205;-63
2023/05/02 07:51:13;;;;;;;5.13;2.58;;;;;;;17.57;nan;61476.44;4974163;28;20173;-62
2023/05/02 07:53:38;;;;;;;3.28;2.60;;;;;;;17.59;nan;61460.66;4974090;28;20367;-63
2023/05/02 07:56:05;;;;;;;4.40;2.22;;;;;;;17.81;nan;61505.09;4973991;28;20236;-62
2023/05/02 07:58:31;;;;;;;4.00;2.55;;;;;;;17.73;nan;61413.91;4973732;28;20232;-62
2023/05/02 08:00:56;;;;;;;6.80;2.28;;;;;;;17.92;nan;61512.97;4973979;28;20560;-61
2023/05/02 08:03:22;;;;;;;3.47;2.50;;;;;;;17.62;nan;61463.47;4974078;28;20562;-61
2023/05/02 08:05:47;;;;;;;3.85;2.15;;;;;;;17.71;nan;61465.34;4973855;28;20182;-62
2023/05/02 08:08:13;;;;;;;3.50;2.25;;;;;;;17.39;nan;61427.66;4973833;28;20177;-62
2023/05/02 08:10:38;;;;;;;5.72;2.28;;;;;;;17.85;nan;61514.81;4973996;28;20675;-62
2023/05/02 08:13:03;;;;;;;2.75;2.20;;;;;;;18.16;nan;61524.06;4974308;28;20173;-63
2023/05/02 08:15:29;;;;;;;4.60;2.15;;;;;;;18.42;nan;61542.59;4973971;28;20209;-62
2023/05/02 08:17:55;;;;;;;2.85;1.77;;;;;;;18.28;nan;61550.56;4973920;28;20169;-62
2023/05/02 08:20:21;;;;;;;3.97;1.85;;;;;;;18.24;nan;61537.72;4973690;28;20196;-62
2023/05/02 08:22:47;;;;;;;2.78;2.13;;;;;;;18.18;nan;61701.59;4973562;28;20182;-61
2023/05/02 08:25:12;;;;;;;3.03;1.75;;;;;;;18.35;nan;61565.72;4974073;28;20169;-63
2023/05/02 08:27:38;;;;;;;3.35;1.85;;;;;;;18.34;nan;61523.75;4973685;28;20181;-63
2023/05/02 08:30:03;;;;;;;3.13;1.98;;;;;;;18.67;nan;61565.19;4973536;28;20172;-62
2023/05/02 08:32:30;;;;;;;3.00;1.85;;;;;;;18.89;nan;61585.53;4975665;28;20244;-62
2023/05/02 08:34:56;;;;;;;2.55;1.80;;;;;;;19.04;nan;61601.38;4973509;28;20243;-62
2023/05/02 08:37:21;;;;;;;2.90;1.90;;;;;;;18.32;nan;61537.00;4972636;28;20174;-62
2023/05/02 08:39:47;;;;;;;3.60;1.90;;;;;;;18.95;nan;61623.41;4973882;28;20265;-62
2023/05/02 08:42:12;;;;;;;2.58;1.77;;;;;;;18.94;nan;61595.78;4973694;28;20173;-62
2023/05/02 08:44:38;;;;;;;2.25;1.75;;;;;;;19.33;nan;61634.25;4973405;28;20173;-63
2023/05/02 08:47:05;;;;;;;2.85;1.95;;;;;;;19.58;nan;61706.13;4973431;28;20615;-62
2023/05/02 08:49:32;;;;;;;2.30;1.65;;;;;;;19.34;nan;61643.72;4973439;28;20177;-61
2023/05/02 08:51:59;;;;;;;2.97;2.30;;;;;;;19.17;nan;61640.00;4973250;28;20185;-61
2023/05/02 08:54:25;;;;;;;1.95;1.75;;;;;;;19.17;nan;61652.94;4973142;28;20219;-61
2023/05/02 08:56:53;;;;;;;2.50;1.85;;;;;;;19.33;nan;61753.41;4973239;28;20170;-63
2023/05/02 08:59:18;;;;;;;2.10;1.75;;;;;;;19.10;nan;61678.66;4973218;28;20289;-62
2023/05/02 09:01:54;;;;;;;4.55;1.88;;;;;;;19.20;nan;61614.31;4973280;28;20607;-61
2023/05/02 09:04:23;;;;;;;2.45;1.60;;;;;;;19.17;nan;61675.69;4973168;28;20223;-62
2023/05/02 09:06:48;;;;;;;3.10;1.83;;;;;;;19.13;nan;61673.75;4973401;28;20228;-62
2023/05/02 09:09:13;;;;;;;2.28;1.75;;;;;;;19.14;nan;61628.25;4973032;28;20174;-63
2023/05/02 09:11:40;;;;;;;2.00;1.65;;;;;;;19.13;nan;61594.03;4973029;28;20177;-62
2023/05/02 09:14:16;;;;;;;3.22;2.20;;;;;;;19.17;nan;61660.72;4973231;28;20267;-62
2023/05/02 09:16:42;;;;;;;2.78;1.88;;;;;;;18.94;nan;61601.53;4972983;28;20177;-61
2023/05/02 09:19:08;;;;;;;2.10;1.70;;;;;;;19.33;nan;61649.78;4972727;28;20180;-62
2023/05/02 09:21:40;;;;;;;2.00;1.58;;;;;;;19.44;nan;61669.50;4972602;28;20170;-62
2023/05/02 09:24:17;;;;;;;3.38;1.80;;;;;;;19.50;nan;61632.25;4973060;28;20177;-62
2023/05/02 09:26:43;;;;;;;1.65;1.55;;;;;;;19.50;nan;61663.91;4972994;28;20173;-62
2023/05/02 09:29:08;;;;;;;2.55;1.60;;;;;;;19.42;nan;61676.09;4972632;28;20546;-63
2023/05/02 09:31:38;;;;;;;2.58;1.88;;;;;;;19.91;nan;61696.91;4966467;28;20181;-62
2023/05/02 09:34:09;;;;;;;1.98;1.63;;;;;;;19.96;nan;61694.78;4971096;28;20184;-62
2023/05/02 09:36:41;;;;;;;2.63;1.48;;;;;;;19.90;nan;61713.34;4975292;28;20189;-62
2023/05/02 09:39:12;;;;;;;2.28;1.50;;;;;;;19.26;nan;61641.88;4972854;28;20204;-62
2023/05/02 09:41:45;;;;;;;3.33;1.90;;;;;;;19.50;nan;61684.09;4972895;28;20181;-63
2023/05/02 09:44:13;;;;;;;4.45;1.80;;;;;;;19.42;nan;61688.53;4972853;28;20173;-62
2023/05/02 09:46:40;;;;;;;2.25;1.73;;;;;;;19.79;nan;61717.53;4972501;28;20236;-63
2023/05/02 09:49:06;;;;;;;2.00;1.55;;;;;;;19.46;nan;61633.47;4973867;28;20188;-63
2023/05/02 09:51:31;;;;;;;2.85;1.73;;;;;;;19.62;nan;61653.63;4976625;28;20177;-62
2023/05/02 09:53:56;;;;;;;2.20;1.60;;;;;;;19.25;nan;61625.19;4976376;28;20546;-62
2023/05/02 09:56:22;;;;;;;3.05;1.90;;;;;;;19.98;nan;61712.59;4975932;28;20176;-62
2023/05/02 09:58:47;;;;;;;2.63;1.48;;;;;;;19.79;nan;61722.72;4976413;28;20708;-63
2023/05/02 10:01:16;;;;;;;2.28;1.77;;;;;;;19.77;nan;61710.09;4976543;28;20197;-62
2023/05/02 10:03:45;;;;;;;1.90;1.50;;;;;;;19.94;nan;61915.56;4976519;28;20185;-64
2023/05/02 10:06:11;;;;;;;1.58;1.42;;;;;;;19.56;nan;61657.22;4976619;28;20173;-63
2023/05/02 10:08:38;;;;;;;2.30;1.70;;;;;;;20.12;nan;61720.16;4976170;28;20340;-62
2023/05/02 10:11:07;;;;;;;1.75;1.50;;;;;;;20.49;nan;61756.41;4974620;28;20231;-63
2023/05/02 10:13:38;;;;;;;2.70;1.63;;;;;;;20.30;nan;61722.44;4975819;28;20240;-62
2023/05/02 10:16:05;;;;;;;2.78;1.67;;;;;;;20.03;nan;61709.94;4975770;28;20189;-62
2023/05/02 10:18:50;;;;;;;1.88;1.50;;;;;;;20.12;nan;61718.13;4975387;28;20176;-63
2023/05/02 10:21:19;;;;;;;1.88;1.48;;;;;;;19.93;nan;61883.28;4975727;28;20196;-62
2023/05/02 10:23:45;;;;;;;2.17;1.50;;;;;;;20.03;nan;61728.66;4975217;28;20219;-64
2023/05/02 10:26:15;;;;;;;1.60;1.40;;;;;;;20.20;nan;61747.97;4975445;28;20174;-63
2023/05/02 10:28:41;;;;;;;2.45;1.77;;;;;;;20.06;nan;61900.13;4975433;28;20165;-63
2023/05/02 10:31:12;;;;;;;1.58;1.45;;;;;;;20.21;nan;61896.41;4975276;28;20235;-61
2023/05/02 10:33:38;;;;;;;2.33;1.77;;;;;;;20.16;nan;61698.75;4975227;28;20554;-63
2023/05/02 10:36:14;;;;;;;2.40;1.67;;;;;;;20.32;nan;61916.16;4975099;28;20189;-62
2023/05/02 10:38:40;;;;;;;1.50;1.40;;;;;;;20.38;nan;61785.44;4976596;28;20232;-62
2023/05/02 10:41:14;;;;;;;2.00;1.70;;;;;;;20.67;nan;61766.44;4975809;28;20555;-63
2023/05/02 10:43:44;;;;;;;1.40;1.30;;;;;;;20.82;nan;61808.88;4973897;28;20214;-63
2023/05/02 10:46:41;;;;;;;2.03;1.45;;;;;;;20.73;nan;61814.81;4975996;28;20197;-63
2023/05/02 10:49:09;;;;;;;4.38;1.33;;;;;;;20.52;nan;61793.56;4975350;28;20232;-65
2023/05/02 10:51:40;;;;;;;1.77;1.48;;;;;;;20.66;nan;61778.88;4975360;28;20798;-62
2023/05/02 10:54:24;;;;;;;3.33;1.50;;;;;;;20.65;nan;61766.78;4975264;28;20634;-63
2023/05/02 10:59:29;;;;;;;1.58;1.30;;;;;;;20.76;nan;61802.66;4960445;28;20244;-62
2023/05/02 11:01:55;;;;;;;2.50;1.50;;;;;;;20.57;nan;61799.25;4975498;28;20206;-62
2023/05/02 11:04:20;;;;;;;1.67;1.40;;;;;;;20.72;nan;61790.88;4974012;28;20353;-62
2023/05/02 11:06:55;;;;;;;1.70;1.40;;;;;;;21.07;nan;61855.47;4975030;28;20178;-62
2023/05/02 11:09:20;;;;;;;1.98;1.52;;;;;;;20.95;nan;61815.84;4975167;28;20184;-61
2023/05/02 11:11:48;;;;;;;1.30;1.20;;;;;;;20.93;nan;61847.94;4975488;28;20177;-62
2023/05/02 11:14:36;;;;;;;1.70;1.42;;;;;;;20.88;nan;61795.50;4974920;28;20185;-62
2023/05/02 11:17:04;;;;;;;1.52;1.40;;;;;;;20.78;nan;61791.94;4974591;28;20186;-61
2023/05/02 11:19:55;;;;;;;2.78;1.58;;;;;;;20.78;nan;61791.94;4974688;28;20187;-63
2023/05/02 11:22:22;;;;;;;1.40;1.30;;;;;;;20.89;nan;61820.00;4974856;28;20208;-61
2023/05/02 11:24:49;;;;;;;1.83;1.20;;;;;;;21.02;nan;61985.47;4975052;28;20187;-62
2023/05/02 11:27:30;;;;;;;1.75;1.30;;;;;;;21.13;nan;61813.50;4974909;28;20173;-63
2023/05/02 11:30:01;;;;;;;2.53;1.45;;;;;;;20.77;nan;61803.19;4974790;28;20188;-61
2023/05/02 11:32:44;;;;;;;3.38;1.58;;;;;;;20.70;nan;61793.22;4974254;28;20177;-64
2023/05/02 11:35:26;;;;;;;1.65;1.50;;;;;;;20.67;nan;62000.72;4974483;28;20208;-63
2023/05/02 11:37:56;;;;;;;2.47;1.65;;;;;;;20.62;nan;61787.31;4974593;28;20184;-63
2023/05/02 11:40:22;;;;;;;1.30;1.10;;;;;;;20.53;nan;61784.88;4974339;28;20178;-63
2023/05/02 11:42:48;;;;;;;2.03;1.40;;;;;;;20.54;nan;61770.44;4975284;28;20181;-62
2023/05/02 11:45:13;;;;;;;2.22;1.60;;;;;;;20.93;nan;61827.16;4974557;28;20174;-62
2023/05/02 11:47:41;;;;;;;3.78;1.40;;;;;;;21.19;nan;61848.34;4974222;28;20173;-64
2023/05/02 11:50:08;;;;;;;1.35;1.25;;;;;;;21.42;nan;61876.50;4974429;28;20181;-62
2023/05/02 11:52:38;;;;;;;3.13;2.17;;;;;;;21.35;nan;61954.34;4974317;28;20260;-62
2023/05/02 11:55:09;;;;;;;4.88;1.50;;;;;;;21.18;nan;61873.19;4974756;28;20208;-64
2023/05/02 11:57:38;;;;;;;2.20;1.35;;;;;;;21.37;nan;61894.22;4973862;28;20177;-64